createdAt,value
2023-01-08T00:02:57.546Z,77.89
2023-01-08T00:06:02.394Z,77.88
2023-01-08T00:09:05.717Z,77.87
2023-01-08T00:12:08.864Z,77.85
2023-01-08T00:15:12.088Z,77.85
2023-01-08T00:18:15.270Z,77.87
2023-01-08T00:21:18.505Z,77.85
2023-01-08T00:24:21.693Z,77.83
2023-01-08T00:27:24.888Z,77.80
2023-01-08T00:30:28.141Z,77.82
2023-01-08T00:33:31.772Z,77.87
2023-01-08T00:36:35.015Z,77.84
2023-01-08T00:39:38.189Z,77.79
2023-01-08T00:42:41.432Z,77.75
2023-01-08T00:45:44.724Z,77.73
2023-01-08T00:48:47.917Z,77.68
2023-01-08T00:51:51.163Z,77.66
2023-01-08T00:54:54.400Z,77.65
2023-01-08T00:57:58.370Z,77.67
2023-01-08T01:01:01.803Z,77.62
2023-01-08T01:04:05.106Z,77.64
2023-01-08T01:07:08.367Z,77.68
2023-01-08T01:10:13.737Z,77.67
2023-01-08T01:13:16.928Z,77.68
2023-01-08T01:16:20.230Z,77.69
2023-01-08T01:19:24.037Z,77.69
2023-01-08T01:22:27.616Z,77.66
2023-01-08T01:25:30.856Z,77.60
2023-01-08T01:28:34.055Z,77.53
2023-01-08T01:31:37.309Z,77.44
2023-01-08T01:34:40.564Z,77.38
2023-01-08T01:37:43.735Z,77.29
2023-01-08T01:40:46.882Z,77.23
2023-01-08T01:43:50.566Z,77.16
2023-01-08T01:46:53.815Z,77.07
2023-01-08T01:50:06.023Z,77.07
2023-01-08T01:53:16.645Z,77.06
2023-01-08T01:56:20.793Z,77.03
2023-01-08T01:59:24.079Z,76.94
2023-01-08T02:02:27.597Z,76.82
2023-01-08T02:06:08.300Z,76.64
2023-01-08T02:09:30.002Z,76.49
2023-01-08T02:12:51.880Z,76.26
2023-01-08T02:16:16.006Z,76.12
2023-01-08T02:19:41.318Z,75.98
2023-01-08T02:23:04.758Z,75.80
2023-01-08T02:26:13.896Z,75.77
2023-01-08T02:29:24.139Z,75.78
2023-01-08T02:32:28.749Z,75.78
2023-01-08T02:35:42.430Z,75.71
2023-01-08T02:39:01.514Z,75.62
2023-01-08T02:42:04.847Z,75.51
2023-01-08T02:45:11.044Z,75.57
2023-01-08T02:48:29.293Z,75.57
2023-01-08T02:51:58.628Z,75.65
2023-01-08T02:55:04.018Z,75.60
2023-01-08T02:58:07.755Z,75.65
2023-01-08T03:01:13.427Z,75.64
2023-01-08T03:04:21.781Z,75.76
2023-01-08T03:07:25.176Z,75.82
2023-01-08T03:10:31.445Z,76.09
2023-01-08T03:13:41.536Z,76.17
2023-01-08T03:16:49.161Z,76.12
2023-01-08T03:20:02.143Z,76.06
2023-01-08T03:23:10.386Z,76.02
2023-01-08T03:26:21.841Z,75.95
2023-01-08T03:29:26.545Z,75.74
2023-01-08T03:32:31.267Z,75.66
2023-01-08T03:35:37.180Z,75.63
2023-01-08T03:38:45.414Z,75.55
2023-01-08T03:41:49.690Z,75.40
2023-01-08T03:44:53.140Z,75.31
2023-01-08T03:47:58.352Z,75.28
2023-01-08T03:51:01.810Z,75.29
2023-01-08T03:54:05.325Z,75.33
2023-01-08T03:57:08.510Z,75.42
2023-01-08T04:00:12.250Z,75.52
2023-01-08T04:03:15.474Z,75.47
2023-01-08T04:06:18.719Z,75.51
2023-01-08T04:09:21.897Z,75.48
2023-01-08T04:12:25.138Z,75.33
2023-01-08T04:15:28.411Z,75.18
2023-01-08T04:18:31.926Z,75.12
2023-01-08T04:21:35.130Z,75.10
2023-01-08T04:24:38.495Z,75.10
2023-01-08T04:27:41.763Z,75.09
2023-01-08T04:30:45.553Z,75.07
2023-01-08T04:33:48.864Z,75.28
2023-01-08T04:36:52.149Z,75.53
2023-01-08T04:39:55.389Z,75.74
2023-01-08T04:42:58.637Z,75.95
2023-01-08T04:46:04.263Z,75.91
2023-01-08T04:49:07.867Z,75.78
2023-01-08T04:52:11.172Z,75.68
2023-01-08T04:55:14.484Z,75.61
2023-01-08T04:58:17.837Z,75.46
2023-01-08T05:01:23.658Z,75.63
2023-01-08T05:04:26.993Z,75.73
2023-01-08T05:07:30.240Z,75.69
2023-01-08T05:10:33.510Z,75.72
2023-01-08T05:13:36.778Z,75.74
2023-01-08T05:16:40.036Z,75.83
2023-01-08T05:19:43.443Z,75.93
2023-01-08T05:22:48.418Z,76.10
2023-01-08T05:25:51.675Z,76.28
2023-01-08T05:28:54.884Z,76.46
2023-01-08T05:31:58.097Z,76.59
2023-01-08T05:35:01.341Z,76.71
2023-01-08T05:38:04.558Z,76.77
2023-01-08T05:41:09.567Z,76.79
2023-01-08T05:44:12.791Z,76.83
2023-01-08T05:47:16.037Z,76.84
2023-01-08T05:50:19.216Z,76.91
2023-01-08T05:53:22.802Z,76.83
2023-01-08T05:56:25.977Z,76.74
2023-01-08T05:59:29.170Z,76.65
2023-01-08T06:02:32.394Z,76.56
2023-01-08T06:05:35.793Z,76.50
2023-01-08T06:08:39.427Z,76.38
2023-01-08T06:11:42.686Z,76.29
2023-01-08T06:14:45.984Z,76.18
2023-01-08T06:17:49.191Z,76.12
2023-01-08T06:20:52.497Z,76.13
2023-01-08T06:23:55.661Z,75.99
2023-01-08T06:26:58.807Z,75.96
2023-01-08T06:30:02.008Z,75.95
2023-01-08T06:33:05.143Z,76.05
2023-01-08T06:36:08.719Z,76.25
2023-01-08T06:39:11.978Z,76.51
2023-01-08T06:42:15.259Z,76.69
2023-01-08T06:45:18.743Z,76.73
2023-01-08T06:48:21.925Z,76.86
2023-01-08T06:51:25.074Z,76.85
2023-01-08T06:54:28.346Z,76.64
2023-01-08T06:57:32.183Z,76.36
2023-01-08T07:00:35.387Z,76.20
2023-01-08T07:03:38.648Z,76.11
2023-01-08T07:06:41.874Z,76.18
2023-01-08T07:09:45.206Z,76.30
2023-01-08T07:12:49.256Z,76.36
2023-01-08T07:15:52.632Z,76.39
2023-01-08T07:18:55.914Z,76.45
2023-01-08T07:21:59.068Z,76.55
2023-01-08T07:25:02.472Z,76.63
2023-01-08T07:28:07.106Z,76.68
2023-01-08T07:31:10.491Z,76.72
2023-01-08T07:34:15.343Z,76.76
2023-01-08T07:37:18.625Z,76.86
2023-01-08T07:40:21.942Z,76.90
2023-01-08T07:43:26.247Z,76.92
2023-01-08T07:46:29.525Z,76.94
2023-01-08T07:49:32.760Z,77.00
2023-01-08T07:52:45.754Z,77.02
2023-01-08T07:55:49.062Z,77.06
2023-01-08T07:59:33.013Z,77.14
2023-01-08T08:02:36.454Z,77.22
2023-01-08T08:05:43.412Z,77.36
2023-01-08T08:13:47.646Z,77.52
2023-01-08T08:16:50.884Z,77.51
2023-01-08T08:19:54.154Z,77.45
2023-01-08T08:23:05.837Z,77.42
2023-01-08T08:26:09.242Z,77.41
2023-01-08T08:29:12.477Z,77.38
2023-01-08T08:32:15.689Z,77.35
2023-01-08T08:35:18.983Z,77.27
2023-01-08T08:38:24.043Z,77.20
2023-01-08T08:41:27.508Z,77.17
2023-01-08T08:44:30.745Z,77.12
2023-01-08T08:47:34.826Z,77.08
2023-01-08T08:50:39.164Z,77.08
2023-01-08T08:54:17.236Z,77.06
2023-01-08T08:57:27.342Z,77.07
2023-01-08T09:00:30.801Z,77.06
2023-01-08T09:03:42.320Z,77.04
2023-01-08T09:06:48.398Z,77.09
2023-01-08T09:10:17.932Z,77.12
2023-01-08T09:13:21.432Z,77.17
2023-01-08T09:16:25.146Z,77.23
2023-01-08T09:19:29.503Z,77.25
2023-01-08T09:22:33.203Z,77.22
2023-01-08T09:25:36.680Z,77.13
2023-01-08T09:28:43.626Z,77.19
2023-01-08T09:31:57.575Z,77.19
2023-01-08T09:35:00.952Z,77.11
2023-01-08T09:38:04.518Z,77.12
2023-01-08T09:41:13.442Z,77.21
2023-01-08T09:44:25.054Z,77.14
2023-01-08T09:47:41.240Z,76.91
2023-01-08T09:50:45.095Z,76.82
2023-01-08T09:53:54.955Z,76.78
2023-01-08T09:56:59.923Z,76.77
2023-01-08T10:00:15.563Z,76.70
2023-01-08T10:05:34.723Z,76.83
2023-01-08T10:08:39.017Z,76.77
2023-01-08T10:11:45.785Z,76.70
2023-01-08T10:14:53.622Z,76.60
2023-01-08T10:18:13.658Z,76.60
2023-01-08T10:21:18.026Z,76.54
2023-01-08T10:24:36.620Z,76.39
2023-01-08T10:27:47.831Z,76.30
2023-01-08T10:39:48.741Z,76.30
2023-01-08T10:42:55.321Z,76.41
2023-01-08T10:46:08.946Z,76.35
2023-01-08T10:49:39.934Z,76.45
2023-01-08T10:58:26.513Z,76.39
2023-01-08T11:04:22.754Z,76.14
2023-01-08T11:07:39.593Z,76.06
2023-01-08T11:11:13.572Z,76.00
2023-01-08T11:14:39.403Z,75.84
2023-01-08T11:18:25.287Z,75.75
2023-01-08T11:21:36.629Z,75.64
2023-01-08T11:24:39.984Z,75.51
2023-01-08T11:27:58.976Z,75.39
2023-01-08T11:31:16.437Z,75.25
2023-01-08T11:34:38.659Z,75.11
2023-01-08T11:37:48.561Z,74.94
2023-01-08T11:40:56.065Z,74.81
2023-01-08T11:44:16.191Z,74.60
2023-01-08T11:47:55.287Z,74.43
2023-01-08T11:51:09.109Z,74.34
2023-01-08T11:59:22.622Z,74.14
2023-01-08T12:02:49.920Z,74.01
2023-01-08T12:21:16.824Z,73.25
2023-01-08T12:24:54.377Z,72.97
2023-01-08T12:28:01.757Z,72.93
2023-01-08T12:31:46.363Z,72.49
2023-01-08T12:35:14.981Z,72.32
2023-01-08T12:38:25.672Z,72.14
2023-01-08T12:41:30.369Z,71.85
2023-01-08T12:44:33.002Z,71.73
2023-01-08T12:47:37.500Z,71.58
2023-01-08T12:50:42.468Z,71.26
2023-01-08T12:54:19.987Z,71.07
2023-01-08T12:57:34.393Z,70.96
2023-01-08T13:01:01.873Z,70.93
2023-01-08T13:04:11.841Z,70.98
2023-01-08T13:07:25.014Z,71.20
2023-01-08T13:11:00.156Z,71.10
2023-01-08T13:14:13.342Z,71.04
2023-01-08T13:17:21.897Z,71.05
2023-01-08T13:20:28.876Z,71.01
2023-01-08T13:23:46.455Z,70.94
2023-01-08T13:27:17.591Z,71.02
2023-01-08T13:31:01.243Z,71.01
2023-01-08T13:35:01.034Z,71.17
2023-01-08T13:38:17.442Z,71.27
2023-01-08T13:41:28.070Z,71.29
2023-01-08T13:44:40.493Z,71.29
2023-01-08T13:47:42.706Z,71.36
2023-01-08T13:50:46.982Z,71.46
2023-01-08T13:53:53.453Z,71.56
2023-01-08T13:57:04.193Z,71.64
2023-01-08T14:00:49.864Z,71.78
2023-01-08T14:03:51.869Z,71.96
2023-01-08T14:07:09.767Z,72.12
2023-01-08T14:10:13.497Z,72.30
2023-01-08T14:13:17.518Z,72.43
2023-01-08T14:16:20.990Z,72.58
2023-01-08T14:19:25.424Z,72.79
2023-01-08T14:22:32.413Z,73.01
2023-01-08T14:25:34.496Z,73.18
2023-01-08T14:28:36.569Z,73.38
2023-01-08T14:31:45.472Z,73.62
2023-01-08T14:34:49.740Z,73.77
2023-01-08T14:37:51.631Z,73.86
2023-01-08T14:41:11.497Z,73.84
2023-01-08T14:44:14.743Z,73.81
2023-01-08T14:47:19.273Z,73.80
2023-01-08T14:50:31.576Z,73.79
2023-01-08T14:53:44.002Z,73.85
2023-01-08T14:56:49.889Z,73.83
2023-01-08T14:59:57.968Z,73.84
2023-01-08T15:03:38.848Z,73.91
2023-01-08T15:06:41.368Z,74.04
2023-01-08T15:09:43.352Z,74.05
2023-01-08T15:12:56.822Z,73.93
2023-01-08T15:16:28.639Z,73.79
2023-01-08T15:19:36.502Z,73.76
2023-01-08T15:22:38.561Z,73.73
2023-01-08T15:25:44.081Z,73.73
2023-01-08T15:28:51.618Z,73.75
2023-01-08T15:31:53.735Z,73.76
2023-01-08T15:35:25.250Z,73.69
2023-01-08T15:38:27.091Z,73.69
2023-01-08T15:41:58.432Z,73.69
2023-01-08T15:45:00.354Z,73.62
2023-01-08T15:48:03.404Z,73.60
2023-01-08T15:51:17.830Z,73.70
2023-01-08T15:54:25.257Z,73.67
2023-01-08T16:01:02.937Z,73.74
2023-01-08T16:04:04.914Z,73.74
2023-01-08T16:07:06.908Z,73.74
2023-01-08T16:10:09.211Z,73.83
2023-01-08T16:13:12.123Z,73.96
2023-01-08T16:16:23.694Z,73.95
2023-01-08T16:19:26.611Z,74.03
2023-01-08T16:22:28.601Z,74.07
2023-01-08T16:25:31.069Z,74.06
2023-01-08T16:28:33.534Z,74.06
2023-01-08T16:31:38.277Z,74.13
2023-01-08T16:34:55.591Z,74.19
2023-01-08T16:37:57.565Z,74.37
2023-01-08T16:41:23.734Z,74.51
2023-01-08T16:44:58.895Z,74.63
2023-01-08T16:48:07.276Z,74.83
2023-01-08T16:54:48.467Z,74.89
2023-01-08T16:57:50.446Z,74.95
2023-01-08T17:00:59.949Z,74.99
2023-01-08T17:04:10.958Z,74.98
2023-01-08T17:07:44.889Z,75.05
2023-01-08T17:10:48.207Z,75.11
2023-01-08T17:13:55.723Z,75.07
2023-01-08T17:16:57.865Z,75.11
2023-01-08T17:20:15.288Z,75.09
2023-01-08T17:25:46.436Z,75.62
2023-01-08T17:29:29.295Z,75.43
2023-01-08T17:32:39.412Z,75.42
2023-01-08T17:36:52.178Z,75.40
2023-01-08T17:39:54.163Z,75.37
2023-01-08T17:43:16.719Z,75.60
2023-01-08T17:46:18.748Z,75.77
2023-01-08T17:49:20.608Z,75.89
2023-01-08T17:52:24.762Z,76.00
2023-01-08T17:55:26.888Z,76.11
2023-01-08T17:58:33.436Z,76.23
2023-01-08T18:01:44.247Z,76.30
2023-01-08T18:04:46.340Z,76.34
2023-01-08T18:07:48.372Z,76.38
2023-01-08T18:10:50.379Z,76.46
2023-01-08T18:14:03.434Z,76.53
2023-01-08T18:18:15.273Z,76.61
2023-01-08T18:21:19.018Z,76.66
2023-01-08T18:24:21.079Z,76.72
2023-01-08T18:27:37.512Z,76.78
2023-01-08T18:31:18.470Z,76.82
2023-01-08T18:42:20.260Z,77.28
2023-01-08T18:46:06.027Z,77.17
2023-01-08T18:49:13.882Z,77.12
2023-01-08T18:52:15.877Z,77.11
2023-01-08T18:55:20.417Z,77.10
2023-01-08T18:58:22.263Z,77.14
2023-01-08T19:01:24.807Z,77.13
2023-01-08T19:04:27.021Z,77.06
2023-01-08T19:07:29.381Z,77.04
2023-01-08T19:10:31.291Z,77.00
2023-01-08T19:13:33.135Z,76.94
2023-01-08T19:16:35.123Z,76.90
2023-01-08T19:19:37.116Z,76.87
2023-01-08T19:22:39.017Z,76.85
2023-01-08T19:25:41.698Z,76.80
2023-01-08T19:28:46.519Z,76.74
2023-01-08T19:31:48.464Z,76.68
2023-01-08T19:34:52.795Z,76.76
2023-01-08T19:37:54.748Z,76.84
2023-01-08T19:40:59.669Z,76.85
2023-01-08T19:44:01.680Z,76.90
2023-01-08T19:47:03.501Z,76.91
2023-01-08T19:50:06.402Z,76.90
2023-01-08T19:53:08.415Z,76.92
2023-01-08T19:56:15.195Z,77.00
2023-01-08T19:59:17.369Z,76.97
2023-01-08T20:02:19.617Z,76.99
2023-01-08T20:05:21.583Z,77.00
2023-01-08T20:08:23.507Z,77.06
2023-01-08T20:11:26.642Z,77.07
2023-01-08T20:14:29.178Z,77.06
2023-01-08T20:17:31.260Z,77.13
2023-01-08T20:20:33.259Z,77.19
2023-01-08T20:23:36.422Z,77.16
2023-01-08T20:26:38.947Z,77.16
2023-01-08T20:29:41.098Z,77.26
2023-01-08T20:32:42.995Z,77.37
2023-01-08T20:35:44.912Z,77.37
2023-01-08T20:38:54.854Z,77.36
2023-01-08T20:42:04.412Z,77.33
2023-01-08T20:45:08.001Z,77.24
2023-01-08T20:48:09.814Z,77.23
2023-01-08T20:51:14.652Z,77.26
2023-01-08T20:54:16.748Z,77.31
2023-01-08T20:57:18.571Z,77.29
2023-01-08T21:00:21.269Z,77.35
2023-01-08T21:03:25.586Z,77.39
2023-01-08T21:06:30.274Z,77.36
2023-01-08T21:09:32.127Z,77.37
2023-01-08T21:12:36.721Z,77.34
2023-01-08T21:15:38.537Z,77.34
2023-01-08T21:18:44.007Z,77.33
2023-01-08T21:21:45.937Z,77.39
2023-01-08T21:24:47.730Z,77.39
2023-01-08T21:27:49.550Z,77.41
2023-01-08T21:30:52.173Z,77.48
2023-01-08T21:33:58.764Z,77.52
2023-01-08T21:37:03.497Z,77.44
2023-01-08T21:40:06.072Z,77.40
2023-01-08T21:43:30.035Z,77.38
2023-01-08T21:46:31.917Z,77.42
2023-01-08T21:49:35.306Z,77.41
2023-01-08T21:52:55.509Z,77.47
2023-01-08T21:55:58.711Z,77.53
2023-01-08T21:59:00.730Z,77.61
2023-01-08T22:02:04.037Z,77.62
2023-01-08T22:05:06.682Z,77.57
2023-01-08T22:08:13.281Z,77.55
2023-01-08T22:11:15.119Z,77.50
2023-01-08T22:14:17.046Z,77.49
2023-01-08T22:17:18.919Z,77.43
2023-01-08T22:20:20.879Z,77.42
2023-01-08T22:23:22.695Z,77.39
2023-01-08T22:26:24.574Z,77.36
2023-01-08T22:29:26.438Z,77.41
2023-01-08T22:32:28.263Z,77.40
2023-01-08T22:35:30.086Z,77.36
2023-01-08T22:38:32.073Z,77.33
2023-01-08T22:41:33.858Z,77.31
2023-01-08T22:44:35.831Z,77.30
2023-01-08T22:47:37.692Z,77.27
2023-01-08T22:50:39.495Z,77.20
2023-01-08T22:53:41.389Z,77.16
2023-01-08T22:56:43.253Z,77.11
2023-01-08T22:59:45.127Z,77.08
2023-01-08T23:02:46.993Z,77.15
2023-01-08T23:05:48.851Z,77.20
2023-01-08T23:08:51.185Z,77.17
2023-01-08T23:11:53.525Z,77.14
2023-01-08T23:14:55.291Z,77.09
2023-01-08T23:17:57.183Z,77.07
2023-01-08T23:21:01.354Z,77.05
2023-01-08T23:24:03.787Z,76.98
2023-01-08T23:27:06.014Z,76.85
2023-01-08T23:30:08.303Z,76.68
2023-01-08T23:33:10.199Z,76.65
2023-01-08T23:36:17.534Z,76.52
2023-01-08T23:39:19.417Z,76.44
2023-01-08T23:42:21.248Z,76.38
2023-01-08T23:45:23.080Z,76.39
2023-01-08T23:48:24.947Z,76.24
2023-01-08T23:51:26.817Z,76.07
2023-01-08T23:54:28.739Z,75.99
2023-01-08T23:57:30.577Z,75.80
